Time;durP1;ratioP1;P1;durP2;ratioP2;P2;SDS_P1;SDS_P2;PMS_P1;PMS_P2;Temp;Humidity;BMP_temperature;BMP_pressure;BME280_temperature;BME280_humidity;BME280_pressure;Samples;Min_cycle;Max_cycle;Signal;HPM_P1;HPM_P2
2022/07/31 00:00:41;;;;;;;6.05;5.28;;;18.70;99.90;;;;;;5032648;28;20026;-83
2022/07/31 00:03:07;;;;;;;8.40;6.13;;;18.70;99.90;;;;;;5032188;28;20026;-84
2022/07/31 00:05:33;;;;;;;8.85;6.00;;;18.70;99.90;;;;;;5034385;28;20022;-85
2022/07/31 00:08:00;;;;;;;9.90;5.70;;;18.60;99.90;;;;;;5033185;28;20022;-84
2022/07/31 00:10:26;;;;;;;6.57;5.45;;;18.60;99.90;;;;;;5034726;28;20026;-84
2022/07/31 00:12:52;;;;;;;8.90;5.63;;;18.60;99.90;;;;;;5026984;28;20214;-85
2022/07/31 00:15:19;;;;;;;8.90;5.97;;;18.60;99.90;;;;;;5026337;28;20022;-84
2022/07/31 00:17:46;;;;;;;8.57;5.68;;;18.50;99.90;;;;;;5025417;28;20049;-84
2022/07/31 00:20:15;;;;;;;8.23;5.68;;;18.50;99.90;;;;;;5031606;28;20026;-84
2022/07/31 00:22:42;;;;;;;10.25;5.68;;;18.50;99.90;;;;;;5035928;28;20049;-81
2022/07/31 00:25:10;;;;;;;6.88;4.97;;;18.50;99.90;;;;;;5038759;28;20110;-83
2022/07/31 00:27:36;;;;;;;7.57;5.47;;;18.50;99.90;;;;;;5038825;28;20026;-83
2022/07/31 00:30:02;;;;;;;9.20;5.38;;;18.50;99.90;;;;;;5037732;28;20022;-81
2022/07/31 00:32:28;;;;;;;6.35;5.15;;;18.50;99.90;;;;;;5038635;28;20041;-83
2022/07/31 00:34:54;;;;;;;7.38;4.97;;;18.50;99.90;;;;;;5038675;28;20029;-83
2022/07/31 00:37:20;;;;;;;6.53;5.28;;;18.50;99.90;;;;;;5038238;28;20049;-82
2022/07/31 00:39:47;;;;;;;11.30;5.43;;;18.50;99.90;;;;;;5037605;28;20045;-82
2022/07/31 00:42:24;;;;;;;9.80;5.40;;;18.50;99.90;;;;;;5034359;28;20038;-84
2022/07/31 00:44:50;;;;;;;8.93;5.53;;;18.50;99.90;;;;;;5035032;28;20033;-82
2022/07/31 00:47:17;;;;;;;7.70;5.38;;;18.50;99.90;;;;;;5037153;28;20041;-83
2022/07/31 00:49:44;;;;;;;9.75;5.53;;;18.50;99.90;;;;;;5038040;28;20017;-83
2022/07/31 00:52:11;;;;;;;6.80;5.70;;;18.50;99.90;;;;;;5037207;28;20022;-83
2022/07/31 00:54:37;;;;;;;8.85;5.35;;;18.50;99.90;;;;;;5034127;28;20037;-85
2022/07/31 00:57:04;;;;;;;6.03;5.10;;;18.50;99.90;;;;;;5029711;28;20030;-85
2022/07/31 00:59:30;;;;;;;9.40;5.00;;;18.50;99.90;;;;;;5028293;28;20032;-84
2022/07/31 01:01:57;;;;;;;8.10;4.68;;;18.50;99.90;;;;;;5025116;28;20087;-86
2022/07/31 01:04:25;;;;;;;7.85;5.65;;;18.50;99.90;;;;;;5025626;28;20040;-86
2022/07/31 01:06:54;;;;;;;10.63;5.22;;;18.50;99.90;;;;;;5008174;28;20018;-84
2022/07/31 01:09:20;;;;;;;8.75;5.13;;;18.50;99.90;;;;;;5037325;28;20057;-82
2022/07/31 01:12:17;;;;;;;8.20;5.30;;;18.60;99.90;;;;;;5037323;28;20014;-84
2022/07/31 01:14:49;;;;;;;6.82;5.13;;;18.60;99.90;;;;;;5035319;28;20113;-83
2022/07/31 01:17:18;;;;;;;10.07;5.13;;;18.60;99.90;;;;;;5032225;28;20030;-84
2022/07/31 01:19:45;;;;;;;5.30;4.63;;;18.60;99.90;;;;;;5032008;28;20014;-85
2022/07/31 01:22:33;;;;;;;7.82;5.32;;;18.50;99.90;;;;;;5033644;28;20093;-84
2022/07/31 01:25:08;;;;;;;7.37;5.33;;;18.50;99.90;;;;;;5034937;28;20018;-83
2022/07/31 01:28:31;;;;;;;9.27;5.82;;;18.50;99.90;;;;;;5034798;28;20022;-81
2022/07/31 01:31:06;;;;;;;10.18;5.35;;;18.50;99.90;;;;;;5035091;28;20053;-83
2022/07/31 01:33:46;;;;;;;6.82;5.20;;;18.60;99.90;;;;;;5018187;28;20036;-85
2022/07/31 01:36:17;;;;;;;7.72;5.80;;;18.50;99.90;;;;;;5035912;28;20041;-86
2022/07/31 01:38:47;;;;;;;7.47;5.30;;;18.50;99.90;;;;;;5036051;28;20041;-83
2022/07/31 01:41:20;;;;;;;7.53;4.88;;;18.50;99.90;;;;;;5019916;28;20026;-84
2022/07/31 01:43:50;;;;;;;6.90;5.30;;;18.50;99.90;;;;;;5037028;28;20034;-85
2022/07/31 01:46:20;;;;;;;8.85;5.32;;;18.50;99.90;;;;;;5020409;28;20029;-84
2022/07/31 01:48:48;;;;;;;8.52;5.60;;;18.50;99.90;;;;;;5019980;28;20014;-83
2022/07/31 01:51:22;;;;;;;9.15;5.40;;;18.50;99.90;;;;;;5032671;28;20029;-86
2022/07/31 01:53:51;;;;;;;8.68;5.22;;;18.50;99.90;;;;;;5027975;28;20026;-83
2022/07/31 01:56:18;;;;;;;9.60;5.50;;;18.50;99.90;;;;;;5032116;28;20053;-84
2022/07/31 01:58:46;;;;;;;7.32;5.20;;;18.40;99.90;;;;;;5028642;28;20056;-86
2022/07/31 02:01:38;;;;;;;8.77;5.45;;;18.40;99.90;;;;;;5030712;28;20010;-85
2022/07/31 02:04:06;;;;;;;8.82;5.40;;;18.40;99.90;;;;;;5028726;28;20138;-86
2022/07/31 02:06:33;;;;;;;7.40;4.80;;;18.40;99.90;;;;;;5032009;28;20018;-84
2022/07/31 02:09:01;;;;;;;7.60;4.90;;;18.40;99.90;;;;;;5026905;28;20022;-83
2022/07/31 02:11:30;;;;;;;12.82;5.68;;;18.40;99.90;;;;;;5026580;28;20022;-86
2022/07/31 02:13:56;;;;;;;10.05;4.45;;;18.40;99.90;;;;;;5027023;28;20029;-85
2022/07/31 02:16:26;;;;;;;13.02;5.57;;;18.40;99.90;;;;;;5025470;28;20022;-85
2022/07/31 02:19:04;;;;;;;8.40;5.30;;;18.40;99.90;;;;;;5026769;28;20052;-85
2022/07/31 02:21:30;;;;;;;12.45;5.00;;;18.40;99.90;;;;;;5031873;28;20053;-85
2022/07/31 02:23:56;;;;;;;8.82;4.80;;;18.40;99.90;;;;;;5034250;28;20029;-84
2022/07/31 02:26:24;;;;;;;6.00;4.53;;;18.40;99.90;;;;;;5028360;28;20030;-84
2022/07/31 02:28:52;;;;;;;8.15;4.93;;;18.40;99.90;;;;;;5011938;28;20068;-85
2022/07/31 02:31:20;;;;;;;7.95;5.50;;;18.40;99.90;;;;;;5032740;28;20061;-83
2022/07/31 02:33:48;;;;;;;9.05;5.20;;;18.40;99.90;;;;;;5038396;28;20026;-83
2022/07/31 02:36:17;;;;;;;7.05;5.53;;;18.40;99.90;;;;;;5038664;28;20034;-83
2022/07/31 02:38:44;;;;;;;8.63;5.30;;;18.40;99.90;;;;;;5038503;28;20048;-84
2022/07/31 02:41:11;;;;;;;10.85;5.07;;;18.50;99.90;;;;;;5037388;28;20029;-84
2022/07/31 02:43:38;;;;;;;9.10;5.25;;;18.40;99.90;;;;;;5038509;28;20102;-85
2022/07/31 02:46:25;;;;;;;7.03;5.00;;;18.40;99.90;;;;;;5037752;28;20033;-84
2022/07/31 02:48:51;;;;;;;7.97;5.07;;;18.40;99.90;;;;;;5022645;28;20034;-84
2022/07/31 02:51:19;;;;;;;10.20;5.47;;;18.40;99.90;;;;;;5037067;28;20026;-84
2022/07/31 02:53:46;;;;;;;7.25;5.43;;;18.40;99.90;;;;;;5015179;28;20512;-82
2022/07/31 02:56:14;;;;;;;9.25;5.75;;;18.50;99.90;;;;;;5036783;28;20081;-83
2022/07/31 02:58:41;;;;;;;6.45;4.85;;;18.50;99.90;;;;;;5038279;28;20034;-83
2022/07/31 03:01:12;;;;;;;11.38;5.13;;;18.50;99.90;;;;;;5022135;28;20061;-83
2022/07/31 03:03:40;;;;;;;9.43;4.82;;;18.60;99.90;;;;;;5038024;28;20018;-83
2022/07/31 03:06:06;;;;;;;6.10;4.80;;;18.60;99.90;;;;;;5037521;28;20033;-85
2022/07/31 03:08:33;;;;;;;11.05;4.93;;;18.60;99.90;;;;;;5019924;28;20040;-85
2022/07/31 03:11:03;;;;;;;8.82;4.85;;;18.50;99.90;;;;;;5019618;28;20041;-81
2022/07/31 03:13:30;;;;;;;11.38;5.45;;;18.60;99.90;;;;;;5036036;28;20058;-84
2022/07/31 03:15:58;;;;;;;8.65;5.47;;;18.50;99.90;;;;;;5035546;28;20064;-83
2022/07/31 03:18:25;;;;;;;6.88;5.03;;;18.50;99.90;;;;;;5018631;28;20014;-84
2022/07/31 03:20:53;;;;;;;8.60;5.40;;;18.50;99.90;;;;;;5018894;28;20045;-81
2022/07/31 03:23:22;;;;;;;12.15;5.75;;;18.50;99.90;;;;;;5035527;28;20034;-83
2022/07/31 03:25:57;;;;;;;10.27;5.55;;;18.50;99.90;;;;;;5021447;28;20037;-83
2022/07/31 03:28:23;;;;;;;8.85;6.00;;;18.50;99.90;;;;;;5038099;28;20053;-84
2022/07/31 03:30:52;;;;;;;8.30;6.22;;;18.40;99.90;;;;;;5039132;28;20049;-82
2022/07/31 03:33:18;;;;;;;9.50;5.95;;;18.40;99.90;;;;;;5037048;28;20026;-84
2022/07/31 03:35:45;;;;;;;10.85;5.50;;;18.40;99.90;;;;;;5034226;28;20033;-85
2022/07/31 03:38:11;;;;;;;10.95;6.30;;;18.40;99.90;;;;;;5016297;28;20037;-84
2022/07/31 03:40:40;;;;;;;11.45;6.20;;;18.40;99.90;;;;;;5030455;28;20048;-86
2022/07/31 03:43:07;;;;;;;10.00;5.72;;;18.40;99.90;;;;;;5030403;28;20140;-84
2022/07/31 03:45:36;;;;;;;11.30;6.18;;;18.50;99.90;;;;;;5031482;28;20014;-85
2022/07/31 03:48:03;;;;;;;10.90;6.28;;;18.40;99.90;;;;;;5032338;28;20113;-85
2022/07/31 03:50:29;;;;;;;11.90;6.32;;;18.50;99.90;;;;;;5035354;28;20065;-85
2022/07/31 03:52:56;;;;;;;9.05;6.47;;;18.50;99.90;;;;;;5037241;28;20046;-83
2022/07/31 03:55:23;;;;;;;12.23;5.82;;;18.40;99.90;;;;;;5038537;28;20033;-84
2022/07/31 03:57:50;;;;;;;8.23;5.82;;;18.50;99.90;;;;;;5038336;28;20022;-84
2022/07/31 04:00:16;;;;;;;9.77;5.97;;;18.50;99.90;;;;;;5022009;28;20029;-83
2022/07/31 04:02:44;;;;;;;8.75;6.10;;;18.50;99.90;;;;;;5038500;28;20061;-82
2022/07/31 04:05:29;;;;;;;13.10;6.07;;;18.50;99.90;;;;;;5035585;28;20033;-84
2022/07/31 04:07:56;;;;;;;7.78;5.70;;;18.60;99.90;;;;;;5030609;28;20045;-81
2022/07/31 04:10:22;;;;;;;8.75;6.03;;;18.60;99.90;;;;;;4999217;28;20030;-82
2022/07/31 04:12:48;;;;;;;8.95;5.95;;;18.60;99.90;;;;;;5032319;28;20096;-84
2022/07/31 04:15:14;;;;;;;12.23;6.40;;;18.60;99.90;;;;;;5028140;28;20029;-85
2022/07/31 04:17:39;;;;;;;7.47;5.50;;;18.70;99.90;;;;;;5031248;28;20017;-87
2022/07/31 04:20:08;;;;;;;11.20;6.28;;;18.70;99.90;;;;;;5030476;28;20030;-84
2022/07/31 04:22:34;;;;;;;12.02;5.50;;;18.70;99.90;;;;;;5081533;23;20365;-82
2022/07/31 04:25:02;;;;;;;8.10;5.70;;;18.70;99.90;;;;;;5078446;28;20025;-83
2022/07/31 04:27:44;;;;;;;8.60;5.97;;;18.70;99.90;;;;;;5078503;28;20047;-82
2022/07/31 04:30:11;;;;;;;8.32;6.13;;;18.70;99.90;;;;;;5083597;28;20029;-81
2022/07/31 04:32:37;;;;;;;10.60;6.82;;;18.80;99.90;;;;;;5084867;28;20052;-82
2022/07/31 04:35:06;;;;;;;8.20;5.47;;;18.70;99.90;;;;;;5066958;28;20028;-82
2022/07/31 04:37:32;;;;;;;7.30;5.72;;;18.80;99.90;;;;;;5085086;28;20028;-81
2022/07/31 04:39:59;;;;;;;7.90;5.85;;;18.80;99.90;;;;;;5087808;28;20025;-81
2022/07/31 04:42:25;;;;;;;7.38;5.72;;;18.80;99.90;;;;;;5089379;28;20017;-82
2022/07/31 04:44:50;;;;;;;7.22;5.50;;;18.90;99.90;;;;;;5089061;28;20031;-85
2022/07/31 04:47:16;;;;;;;8.77;5.85;;;18.90;99.90;;;;;;5085578;28;20028;-82
2022/07/31 04:49:46;;;;;;;11.20;5.25;;;18.90;99.90;;;;;;5087444;28;20051;-82
2022/07/31 04:52:15;;;;;;;7.47;5.80;;;19.00;99.90;;;;;;5090687;28;20028;-81
2022/07/31 04:54:44;;;;;;;10.48;5.70;;;18.90;99.90;;;;;;5068423;28;20029;-83
2022/07/31 04:57:11;;;;;;;8.93;5.80;;;18.90;99.90;;;;;;5079947;28;20063;-83
2022/07/31 04:59:37;;;;;;;9.50;5.45;;;18.90;99.90;;;;;;5081175;28;20020;-82
2022/07/31 05:02:02;;;;;;;9.75;5.82;;;18.90;99.90;;;;;;5079463;28;20032;-83
2022/07/31 05:04:28;;;;;;;7.60;5.65;;;18.90;99.90;;;;;;5077767;28;20027;-83
2022/07/31 05:06:54;;;;;;;11.75;5.85;;;18.90;99.90;;;;;;5077615;28;20056;-82
2022/07/31 05:09:22;;;;;;;10.27;6.40;;;18.90;99.90;;;;;;5078846;28;20361;-81
2022/07/31 05:11:51;;;;;;;8.02;5.90;;;18.90;99.90;;;;;;5061017;28;20024;-82
2022/07/31 05:14:19;;;;;;;10.13;5.70;;;18.90;99.90;;;;;;5077060;28;20035;-82
2022/07/31 05:16:46;;;;;;;10.65;6.10;;;19.00;99.90;;;;;;5078733;28;20484;-82
2022/07/31 05:19:12;;;;;;;12.20;5.90;;;19.00;99.90;;;;;;5083026;28;20440;-81
2022/07/31 05:21:58;;;;;;;9.77;5.53;;;19.00;99.90;;;;;;5082431;28;20055;-82
2022/07/31 05:24:30;;;;;;;12.13;6.32;;;19.10;99.90;;;;;;5078031;28;20037;-83
2022/07/31 05:26:59;;;;;;;8.30;5.38;;;19.10;99.90;;;;;;5076482;28;20021;-83
2022/07/31 05:29:25;;;;;;;7.68;5.68;;;19.20;99.90;;;;;;5077214;28;20069;-82
2022/07/31 05:31:51;;;;;;;7.13;5.38;;;19.30;99.90;;;;;;5078799;28;20040;-84
2022/07/31 05:34:17;;;;;;;8.50;5.55;;;19.30;99.90;;;;;;5076976;28;20020;-83
2022/07/31 05:36:44;;;;;;;13.38;5.50;;;19.30;99.90;;;;;;5080810;28;20033;-82
2022/07/31 05:39:11;;;;;;;14.73;5.50;;;19.30;99.90;;;;;;5072536;28;20024;-81
2022/07/31 05:41:37;;;;;;;8.32;5.18;;;19.30;99.90;;;;;;5082878;28;20033;-84
2022/07/31 05:44:23;;;;;;;8.90;5.35;;;19.30;99.90;;;;;;5079085;28;20504;-82
2022/07/31 05:46:49;;;;;;;9.02;5.25;;;19.30;99.90;;;;;;5078126;28;20393;-84
2022/07/31 05:49:16;;;;;;;8.07;5.35;;;19.30;99.90;;;;;;5078639;28;20028;-83
2022/07/31 05:51:45;;;;;;;8.48;5.55;;;19.40;99.90;;;;;;5079145;28;20109;-83
2022/07/31 05:54:11;;;;;;;8.75;5.32;;;19.50;99.90;;;;;;5077484;28;20546;-84
2022/07/31 05:56:56;;;;;;;8.15;5.65;;;19.60;99.90;;;;;;5079038;28;20055;-80
2022/07/31 05:59:37;;;;;;;8.95;5.40;;;19.80;99.90;;;;;;5076822;28;20400;-82
2022/07/31 06:02:03;;;;;;;10.20;5.53;;;19.80;99.90;;;;;;5060124;28;20037;-82
2022/07/31 06:04:41;;;;;;;9.73;5.28;;;19.90;99.90;;;;;;5077482;28;20021;-81
2022/07/31 06:07:07;;;;;;;13.68;5.35;;;20.00;99.90;;;;;;5077629;28;20071;-83
2022/07/31 06:09:33;;;;;;;10.18;5.20;;;20.20;99.90;;;;;;5081335;28;20031;-79
2022/07/31 06:11:58;;;;;;;7.28;4.95;;;20.20;99.90;;;;;;5096407;28;20016;-80
2022/07/31 06:14:25;;;;;;;10.00;5.53;;;20.30;99.90;;;;;;5096044;28;20036;-80
2022/07/31 06:17:08;;;;;;;6.72;4.68;;;20.40;99.90;;;;;;5096503;28;20040;-81
2022/07/31 06:19:36;;;;;;;8.63;5.15;;;20.50;99.90;;;;;;5087704;28;20127;-82
2022/07/31 06:22:02;;;;;;;7.63;4.80;;;20.70;99.90;;;;;;5081825;28;20107;-81
2022/07/31 06:24:31;;;;;;;6.88;4.47;;;20.80;99.90;;;;;;5080832;28;20169;-82
2022/07/31 06:27:01;;;;;;;8.02;4.85;;;20.80;99.90;;;;;;5077808;28;20049;-81
2022/07/31 06:29:29;;;;;;;13.05;5.22;;;20.90;99.90;;;;;;5078000;28;20028;-81
2022/07/31 06:31:55;;;;;;;6.32;4.40;;;21.00;99.90;;;;;;5084132;28;20379;-81
2022/07/31 06:34:23;;;;;;;12.88;5.03;;;21.10;99.90;;;;;;5084752;28;20029;-82
2022/07/31 06:36:49;;;;;;;5.97;4.28;;;21.20;99.90;;;;;;5084889;28;20029;-82
2022/07/31 06:39:19;;;;;;;8.10;5.00;;;21.20;99.90;;;;;;5083480;28;20036;-82
2022/07/31 06:42:03;;;;;;;16.25;5.53;;;21.20;99.90;;;;;;5084957;28;20067;-83
2022/07/31 06:44:30;;;;;;;8.77;4.50;;;21.20;99.90;;;;;;5086846;28;20029;-82
2022/07/31 06:47:19;;;;;;;7.95;5.13;;;21.30;99.90;;;;;;5065573;28;20089;-83
2022/07/31 06:49:54;;;;;;;9.80;4.90;;;21.40;99.90;;;;;;5088904;28;20051;-83
2022/07/31 06:52:24;;;;;;;14.20;4.93;;;21.40;99.90;;;;;;5087419;28;20036;-81
2022/07/31 06:54:50;;;;;;;8.65;5.03;;;21.50;99.90;;;;;;5088283;28;20029;-81
2022/07/31 06:57:16;;;;;;;5.53;4.57;;;21.60;99.90;;;;;;5089581;28;20025;-82
2022/07/31 06:59:42;;;;;;;6.80;4.43;;;21.70;99.90;;;;;;5089642;28;20028;-81
2022/07/31 07:02:08;;;;;;;6.38;3.90;;;21.70;99.90;;;;;;5091580;28;20043;-82
2022/07/31 07:04:35;;;;;;;5.18;4.03;;;21.80;99.90;;;;;;5094076;28;20029;-80
2022/07/31 07:07:00;;;;;;;5.78;4.45;;;21.80;99.90;;;;;;5094175;28;20052;-82
2022/07/31 07:09:27;;;;;;;4.85;3.92;;;21.80;99.90;;;;;;5095344;28;20025;-83
2022/07/31 07:11:53;;;;;;;10.52;4.07;;;21.90;99.90;;;;;;5088307;28;20573;-84
2022/07/31 07:14:19;;;;;;;7.47;3.80;;;21.90;99.90;;;;;;5086240;28;20035;-84
2022/07/31 07:16:44;;;;;;;7.95;4.03;;;22.00;99.90;;;;;;5071649;28;20025;-83
2022/07/31 07:19:10;;;;;;;8.88;3.72;;;22.00;99.90;;;;;;5087893;28;20100;-82
2022/07/31 07:21:36;;;;;;;5.20;4.40;;;22.00;99.90;;;;;;5087230;28;20055;-83
2022/07/31 07:24:02;;;;;;;7.93;4.43;;;22.00;99.90;;;;;;5087714;28;20029;-83
2022/07/31 07:26:41;;;;;;;6.18;4.50;;;22.10;99.90;;;;;;5088056;28;20342;-83
2022/07/31 07:29:09;;;;;;;7.40;4.43;;;22.10;99.90;;;;;;5087266;28;20035;-83
2022/07/31 07:31:35;;;;;;;5.75;4.28;;;22.10;99.90;;;;;;5084278;28;20024;-83
2022/07/31 07:34:04;;;;;;;7.03;3.83;;;22.10;99.90;;;;;;5068119;28;20106;-83
2022/07/31 07:36:32;;;;;;;6.93;4.05;;;22.10;99.90;;;;;;5086810;28;20040;-83
2022/07/31 07:39:02;;;;;;;5.45;4.07;;;22.20;99.90;;;;;;5071193;28;20040;-83
2022/07/31 07:41:29;;;;;;;5.38;3.80;;;22.20;99.90;;;;;;5085874;28;20052;-83
2022/07/31 07:43:54;;;;;;;7.50;3.95;;;22.30;99.90;;;;;;5083048;28;20449;-84
2022/07/31 07:46:24;;;;;;;4.60;3.33;;;22.20;99.90;;;;;;5086906;28;20099;-82
2022/07/31 07:48:54;;;;;;;5.20;3.63;;;22.20;99.90;;;;;;5093063;28;20032;-82
2022/07/31 07:51:34;;;;;;;7.65;3.67;;;22.20;99.90;;;;;;5090540;28;20039;-84
2022/07/31 07:54:35;;;;;;;4.85;3.42;;;22.30;99.90;;;;;;5070064;28;20043;-83
2022/07/31 07:57:35;;;;;;;10.52;4.20;;;22.30;99.90;;;;;;5070621;28;20089;-83
2022/07/31 08:00:27;;;;;;;6.80;3.80;;;22.50;99.90;;;;;;5066717;28;20058;-83
2022/07/31 08:02:58;;;;;;;9.55;3.78;;;22.60;99.90;;;;;;5079297;28;20021;-83
2022/07/31 08:05:24;;;;;;;8.18;4.03;;;22.50;99.90;;;;;;5082333;28;20067;-81
2022/07/31 08:07:49;;;;;;;6.45;4.30;;;22.50;99.90;;;;;;5086929;28;20016;-82
2022/07/31 08:10:42;;;;;;;6.15;3.75;;;22.50;99.90;;;;;;5073211;28;20046;-82
2022/07/31 08:13:17;;;;;;;10.68;4.13;;;22.70;99.90;;;;;;5085536;28;20545;-82
2022/07/31 08:16:02;;;;;;;5.85;3.95;;;22.80;99.90;;;;;;5089108;28;20050;-85
2022/07/31 08:18:40;;;;;;;11.15;4.10;;;22.80;99.90;;;;;;5082124;28;20133;-85
2022/07/31 08:21:06;;;;;;;5.40;3.92;;;23.00;99.90;;;;;;5079027;28;20029;-83
2022/07/31 08:23:32;;;;;;;5.30;4.20;;;23.10;99.90;;;;;;5078561;28;20036;-84
2022/07/31 08:26:03;;;;;;;5.60;4.07;;;23.20;99.90;;;;;;5078949;28;20020;-84
2022/07/31 08:28:29;;;;;;;7.97;4.05;;;23.20;99.90;;;;;;5078826;28;20048;-83
2022/07/31 08:30:55;;;;;;;7.03;4.00;;;23.20;99.90;;;;;;5080004;28;20043;-85
2022/07/31 08:33:22;;;;;;;6.47;4.18;;;23.40;99.90;;;;;;5079772;28;20400;-84
2022/07/31 08:35:54;;;;;;;4.53;3.67;;;23.50;99.80;;;;;;5079145;28;20082;-84
2022/07/31 08:38:20;;;;;;;6.97;3.40;;;23.60;99.80;;;;;;5080660;28;20040;-83
2022/07/31 08:41:12;;;;;;;30.13;4.00;;;23.80;99.60;;;;;;5063599;28;20032;-85
2022/07/31 08:43:39;;;;;;;6.10;4.40;;;24.10;99.20;;;;;;5079978;28;20088;-84
2022/07/31 08:46:06;;;;;;;8.68;3.85;;;24.10;98.80;;;;;;5061807;28;20098;-84
2022/07/31 08:48:38;;;;;;;7.38;3.55;;;24.00;98.90;;;;;;5076984;28;20031;-83
2022/07/31 08:51:06;;;;;;;8.43;3.50;;;24.00;99.20;;;;;;5088205;28;20040;-84
2022/07/31 08:53:51;;;;;;;6.88;3.63;;;24.20;98.30;;;;;;5087589;28;20035;-84
2022/07/31 08:56:19;;;;;;;7.05;3.40;;;24.20;97.70;;;;;;5084886;28;20024;-84
2022/07/31 08:58:46;;;;;;;6.57;3.53;;;24.20;97.80;;;;;;5087035;28;20115;-83
2022/07/31 09:01:13;;;;;;;7.85;3.92;;;24.20;97.60;;;;;;5084055;28;20048;-81
2022/07/31 09:03:39;;;;;;;6.43;3.58;;;24.10;98.00;;;;;;5084229;28;20062;-82
2022/07/31 09:06:08;;;;;;;7.38;3.38;;;24.30;97.50;;;;;;5078736;28;20028;-85
2022/07/31 09:08:36;;;;;;;8.55;3.47;;;24.50;96.80;;;;;;5077627;28;20047;-83
2022/07/31 09:11:08;;;;;;;4.65;3.45;;;24.60;96.50;;;;;;5078840;28;20025;-84
2022/07/31 09:14:06;;;;;;;6.20;3.22;;;24.60;95.90;;;;;;5078597;28;20028;-85
2022/07/31 09:16:49;;;;;;;5.28;3.10;;;24.70;96.00;;;;;;5078966;28;20048;-81
2022/07/31 09:19:19;;;;;;;7.65;3.25;;;24.70;94.80;;;;;;5077973;28;20142;-84
2022/07/31 09:21:45;;;;;;;6.20;2.95;;;24.70;94.30;;;;;;5078717;28;20145;-83
2022/07/31 09:24:12;;;;;;;4.65;3.25;;;24.60;93.40;;;;;;5080637;28;20075;-83
2022/07/31 09:26:39;;;;;;;9.85;3.05;;;24.60;93.60;;;;;;5065404;28;20028;-81
2022/07/31 09:29:12;;;;;;;5.32;2.85;;;24.70;93.60;;;;;;5089942;28;20094;-86
2022/07/31 09:31:39;;;;;;;5.35;2.50;;;24.80;93.30;;;;;;5092208;28;20029;-83
2022/07/31 09:34:27;;;;;;;6.00;2.63;;;25.00;92.50;;;;;;5092306;28;20044;-83
2022/07/31 09:37:18;;;;;;;6.13;2.50;;;25.20;91.00;;;;;;5093390;28;20041;-82
2022/07/31 09:40:03;;;;;;;5.15;2.60;;;25.20;90.40;;;;;;5092389;28;20188;-83
2022/07/31 09:42:44;;;;;;;5.93;2.33;;;25.50;90.10;;;;;;5092954;28;20128;-84
2022/07/31 09:45:22;;;;;;;6.03;2.47;;;26.00;89.80;;;;;;5088052;28;20025;-83
2022/07/31 09:48:03;;;;;;;4.45;2.42;;;26.40;89.80;;;;;;5093306;28;20055;-82
2022/07/31 09:50:29;;;;;;;10.80;2.60;;;27.30;88.10;;;;;;5085322;28;20032;-85
2022/07/31 09:52:59;;;;;;;4.65;2.60;;;28.00;86.40;;;;;;5081075;28;20027;-82
2022/07/31 09:55:27;;;;;;;2.50;2.08;;;28.60;84.70;;;;;;5080927;28;20025;-86
2022/07/31 09:57:58;;;;;;;8.27;2.10;;;29.60;80.20;;;;;;5080965;28;20042;-84
2022/07/31 10:00:27;;;;;;;4.53;2.00;;;29.90;77.10;;;;;;5081256;28;20088;-83
2022/07/31 10:02:55;;;;;;;4.18;2.47;;;30.00;75.80;;;;;;5086456;28;20026;-84
2022/07/31 10:05:26;;;;;;;5.93;2.50;;;29.80;75.80;;;;;;5086930;28;20088;-83
2022/07/31 10:07:56;;;;;;;3.38;2.30;;;30.20;75.00;;;;;;5086142;28;20031;-81
2022/07/31 10:10:36;;;;;;;5.35;2.38;;;30.80;73.00;;;;;;5090173;28;20036;-83
2022/07/31 10:13:25;;;;;;;2.30;1.90;;;31.90;72.00;;;;;;5087019;28;20070;-84
2022/07/31 10:15:58;;;;;;;3.25;2.30;;;33.30;69.30;;;;;;5093831;28;20029;-82
2022/07/31 10:18:54;;;;;;;4.65;2.40;;;33.60;65.00;;;;;;5062032;28;20055;-83
2022/07/31 10:21:55;;;;;;;3.20;2.40;;;33.30;64.40;;;;;;5137860;22;20079;-87
2022/07/31 10:24:51;;;;;;;3.10;2.03;;;33.30;65.20;;;;;;5029969;28;20048;-88
2022/07/31 10:27:29;;;;;;;3.20;1.95;;;34.00;63.30;;;;;;5027200;28;20102;-85
2022/07/31 10:30:05;;;;;;;4.85;2.50;;;33.90;61.10;;;;;;5029966;28;20057;-86
2022/07/31 10:32:38;;;;;;;2.25;1.98;;;33.60;62.00;;;;;;5029943;28;20516;-87
2022/07/31 10:35:28;;;;;;;4.28;2.25;;;33.40;62.50;;;;;;5026278;28;20501;-87
2022/07/31 10:38:41;;;;;;;3.10;1.92;;;34.80;61.30;;;;;;5015527;28;20030;-86
2022/07/31 10:42:09;;;;;;;5.65;2.22;;;34.40;60.80;;;;;;5028727;28;20045;-84
2022/07/31 10:44:47;;;;;;;5.18;2.05;;;34.60;60.00;;;;;;5001774;28;20053;-87
2022/07/31 10:48:03;;;;;;;3.17;2.00;;;34.60;59.30;;;;;;5031551;28;20052;-86
2022/07/31 10:51:18;;;;;;;6.53;2.25;;;35.40;59.00;;;;;;5030913;28;20092;-87
2022/07/31 10:54:17;;;;;;;7.18;2.15;;;36.00;58.10;;;;;;5014984;28;20053;-87
2022/07/31 10:57:07;;;;;;;2.10;1.90;;;35.80;57.80;;;;;;5011982;28;20042;-87
2022/07/31 10:59:57;;;;;;;2.95;1.80;;;35.90;57.50;;;;;;5012043;28;20030;-88
2022/07/31 11:02:46;;;;;;;5.32;2.28;;;35.80;56.90;;;;;;5026681;28;20053;-87
2022/07/31 11:05:39;;;;;;;3.90;1.70;;;35.90;57.00;;;;;;5026932;28;20056;-87
2022/07/31 11:08:08;;;;;;;4.88;1.83;;;36.70;56.20;;;;;;5013663;28;20053;-89
2022/07/31 11:10:53;;;;;;;2.42;1.88;;;37.50;54.80;;;;;;5029312;28;20037;-89
2022/07/31 11:13:34;;;;;;;5.33;2.23;;;36.90;54.90;;;;;;5014808;28;20045;-88
2022/07/31 11:16:12;;;;;;;4.65;2.20;;;37.30;54.60;;;;;;5017093;28;20092;-87
2022/07/31 11:18:38;;;;;;;4.03;2.00;;;37.10;54.20;;;;;;5031750;28;20502;-87
2022/07/31 11:21:06;;;;;;;2.80;1.80;;;37.60;54.00;;;;;;5030970;28;20099;-87
2022/07/31 11:23:36;;;;;;;3.47;2.17;;;36.60;54.40;;;;;;5037142;28;20333;-86
2022/07/31 11:26:06;;;;;;;4.60;1.90;;;36.10;54.00;;;;;;5019513;28;20024;-86
2022/07/31 11:28:34;;;;;;;6.32;2.22;;;36.40;53.70;;;;;;5037679;28;20057;-86
2022/07/31 11:31:03;;;;;;;6.65;2.22;;;36.00;54.00;;;;;;5036576;28;20081;-87
2022/07/31 11:33:33;;;;;;;2.60;1.95;;;35.90;54.00;;;;;;5038360;28;20082;-86
2022/07/31 11:36:08;;;;;;;3.70;2.17;;;36.90;53.60;;;;;;5038677;28;20034;-86
2022/07/31 11:38:35;;;;;;;3.15;2.08;;;37.50;52.40;;;;;;5038313;28;20006;-86
2022/07/31 11:41:02;;;;;;;3.05;2.20;;;36.80;53.10;;;;;;5038180;28;20085;-87
2022/07/31 11:43:28;;;;;;;4.82;2.20;;;35.70;54.40;;;;;;5037045;28;20077;-86
2022/07/31 11:45:54;;;;;;;4.53;2.78;;;33.90;57.00;;;;;;5037041;28;20090;-87
2022/07/31 11:48:21;;;;;;;5.00;2.53;;;32.80;58.40;;;;;;5036081;28;20033;-87
2022/07/31 11:50:49;;;;;;;4.30;2.05;;;33.20;58.40;;;;;;5035036;28;20049;-86
2022/07/31 11:53:16;;;;;;;5.22;2.20;;;34.70;56.50;;;;;;5031457;28;20049;-87
2022/07/31 11:55:59;;;;;;;5.32;2.50;;;34.50;56.20;;;;;;5032286;28;20084;-87
2022/07/31 11:58:27;;;;;;;8.43;2.28;;;33.60;56.80;;;;;;5033562;28;20057;-89
2022/07/31 12:00:55;;;;;;;5.35;2.50;;;32.40;58.20;;;;;;5031184;28;20038;-86
2022/07/31 12:03:29;;;;;;;4.78;2.80;;;32.20;59.60;;;;;;5013055;28;20164;-88
2022/07/31 12:05:55;;;;;;;5.18;2.28;;;33.20;58.00;;;;;;5030373;28;20026;-87
2022/07/31 12:08:23;;;;;;;4.03;2.20;;;34.80;56.50;;;;;;5012062;28;20085;-86
2022/07/31 12:10:54;;;;;;;5.18;2.50;;;35.20;55.50;;;;;;5030230;28;20064;-85
2022/07/31 12:13:22;;;;;;;2.17;1.85;;;34.50;56.20;;;;;;5030107;28;20060;-86
2022/07/31 12:16:00;;;;;;;4.30;2.15;;;33.10;57.70;;;;;;5030324;28;20032;-86
2022/07/31 12:18:31;;;;;;;3.67;2.10;;;32.30;59.00;;;;;;5014234;28;20037;-86
2022/07/31 12:21:00;;;;;;;6.80;2.25;;;32.60;59.10;;;;;;5033395;28;20124;-83
2022/07/31 12:23:45;;;;;;;3.40;2.25;;;33.90;57.30;;;;;;5033864;28;20041;-84
2022/07/31 12:26:35;;;;;;;3.08;2.40;;;35.30;55.50;;;;;;5034805;28;20049;-85
2022/07/31 12:29:10;;;;;;;4.57;2.40;;;35.20;55.20;;;;;;5035185;28;20038;-86
2022/07/31 12:31:50;;;;;;;5.13;2.15;;;34.00;56.10;;;;;;5036477;28;20017;-88
2022/07/31 12:34:42;;;;;;;7.35;2.17;;;33.10;57.10;;;;;;5036070;28;20010;-86
2022/07/31 12:37:13;;;;;;;5.88;2.10;;;34.10;56.50;;;;;;5036840;28;20107;-87
2022/07/31 12:39:45;;;;;;;3.15;2.28;;;34.30;56.20;;;;;;5019577;28;20014;-86
2022/07/31 12:42:29;;;;;;;4.40;2.42;;;34.10;55.40;;;;;;5035269;28;20038;-86
2022/07/31 12:44:57;;;;;;;4.72;2.13;;;33.20;56.90;;;;;;5035875;28;20029;-86
2022/07/31 12:47:25;;;;;;;8.35;2.63;;;33.10;57.50;;;;;;5036932;28;20037;-85
2022/07/31 12:49:51;;;;;;;3.70;2.15;;;33.80;56.70;;;;;;5036430;28;20045;-87
2022/07/31 12:52:18;;;;;;;4.35;2.35;;;34.20;56.00;;;;;;5035482;28;20022;-85
2022/07/31 12:54:44;;;;;;;2.60;2.25;;;34.90;55.70;;;;;;5019248;28;20034;-87
2022/07/31 12:57:10;;;;;;;3.45;2.10;;;35.40;54.70;;;;;;5034350;28;20117;-87
2022/07/31 12:59:36;;;;;;;2.92;2.40;;;34.20;55.40;;;;;;5034686;28;20034;-87
2022/07/31 13:02:03;;;;;;;5.00;2.90;;;33.00;56.80;;;;;;5035447;28;20026;-87
2022/07/31 13:04:29;;;;;;;6.97;2.40;;;31.70;58.40;;;;;;5035179;28;20081;-86
2022/07/31 13:06:55;;;;;;;4.22;2.30;;;31.20;58.90;;;;;;5034135;28;20033;-85
2022/07/31 13:09:21;;;;;;;6.95;2.70;;;31.30;59.00;;;;;;5035250;28;20525;-86